createdAt,value
2023-05-22T00:01:42.855Z,7.30
2023-05-22T00:04:10.681Z,8.10
2023-05-22T00:06:37.994Z,6.65
2023-05-22T00:09:04.831Z,8.55
2023-05-22T00:11:31.716Z,8.50
2023-05-22T00:13:58.378Z,7.03
2023-05-22T00:16:25.090Z,8.40
2023-05-22T00:18:51.790Z,7.60
2023-05-22T00:21:18.604Z,8.10
2023-05-22T00:23:45.756Z,7.70
2023-05-22T00:26:19.244Z,10.30
2023-05-22T00:28:46.003Z,8.18
2023-05-22T00:31:12.663Z,8.02
2023-05-22T00:33:39.382Z,7.78
2023-05-22T00:36:06.381Z,7.60
2023-05-22T00:38:34.535Z,9.30
2023-05-22T00:41:02.565Z,6.90
2023-05-22T00:43:29.318Z,8.23
2023-05-22T00:45:56.444Z,7.78
2023-05-22T00:48:23.447Z,7.97
2023-05-22T00:50:50.822Z,8.00
2023-05-22T00:53:19.669Z,7.53
2023-05-22T00:55:46.589Z,9.48
2023-05-22T00:58:16.000Z,8.20
2023-05-22T01:00:43.188Z,7.95
2023-05-22T01:03:10.844Z,7.43
2023-05-22T01:05:39.480Z,8.95
2023-05-22T01:08:07.373Z,8.20
2023-05-22T01:10:35.674Z,7.93
2023-05-22T01:13:46.538Z,8.13
2023-05-22T01:16:32.733Z,9.05
2023-05-22T01:19:06.338Z,8.57
2023-05-22T01:21:46.351Z,8.55
2023-05-22T01:24:28.414Z,8.50
2023-05-22T01:27:17.239Z,8.40
2023-05-22T01:30:14.271Z,8.48
2023-05-22T01:32:43.344Z,9.75
2023-05-22T01:35:11.347Z,9.63
2023-05-22T01:37:39.190Z,9.75
2023-05-22T01:40:07.647Z,8.95
2023-05-22T01:42:34.639Z,8.25
2023-05-22T01:45:01.278Z,9.77
2023-05-22T01:47:30.182Z,9.80
2023-05-22T01:49:57.410Z,8.27
2023-05-22T01:52:46.410Z,9.15
2023-05-22T01:55:21.246Z,9.90
2023-05-22T01:57:59.991Z,8.77
2023-05-22T02:00:27.855Z,9.82
2023-05-22T02:03:06.919Z,10.07
2023-05-22T02:05:36.009Z,9.52
2023-05-22T02:08:03.852Z,8.80
2023-05-22T02:10:31.577Z,8.43
2023-05-22T02:12:58.253Z,9.90
2023-05-22T02:15:24.943Z,8.82
2023-05-22T02:17:53.326Z,10.23
2023-05-22T02:20:20.390Z,9.73
2023-05-22T02:22:47.694Z,9.75
2023-05-22T02:25:15.193Z,10.23
2023-05-22T02:27:43.240Z,9.95
2023-05-22T02:30:11.467Z,9.65
2023-05-22T02:32:40.196Z,10.25
2023-05-22T02:35:07.970Z,11.02
2023-05-22T02:37:35.080Z,11.55
2023-05-22T02:40:02.408Z,11.55
2023-05-22T02:42:30.114Z,11.07
2023-05-22T02:44:56.812Z,10.40
2023-05-22T02:47:23.496Z,10.35
2023-05-22T02:49:50.760Z,9.65
2023-05-22T02:52:17.554Z,11.02
2023-05-22T02:54:44.392Z,11.30
2023-05-22T02:57:11.105Z,9.00
2023-05-22T02:59:38.811Z,10.38
2023-05-22T03:02:05.795Z,10.00
2023-05-22T03:04:32.947Z,9.85
2023-05-22T03:07:01.549Z,9.85
2023-05-22T03:09:28.326Z,10.05
2023-05-22T03:11:55.360Z,10.30
2023-05-22T03:14:22.226Z,10.18
2023-05-22T03:16:49.156Z,9.35
2023-05-22T03:19:16.584Z,10.95
2023-05-22T03:21:46.047Z,10.45
2023-05-22T03:24:13.122Z,10.68
2023-05-22T03:26:39.938Z,10.13
2023-05-22T03:29:09.575Z,12.07
2023-05-22T03:31:39.723Z,10.15
2023-05-22T03:34:10.216Z,11.67
2023-05-22T03:36:38.018Z,11.15
2023-05-22T03:39:05.357Z,11.38
2023-05-22T03:41:37.112Z,11.68
2023-05-22T03:44:04.512Z,11.18
2023-05-22T03:46:33.120Z,9.52
2023-05-22T03:49:00.410Z,11.07
2023-05-22T03:51:27.139Z,11.25
2023-05-22T03:53:53.874Z,12.13
2023-05-22T03:56:21.347Z,12.30
2023-05-22T03:58:48.841Z,11.85
2023-05-22T04:01:16.869Z,11.57
2023-05-22T04:03:43.778Z,11.38
2023-05-22T04:06:10.956Z,11.43
2023-05-22T04:08:39.534Z,12.07
2023-05-22T04:11:06.227Z,11.43
2023-05-22T04:13:33.178Z,10.93
2023-05-22T04:16:01.988Z,11.48
2023-05-22T04:18:28.926Z,12.85
2023-05-22T04:20:57.524Z,14.27
2023-05-22T04:23:24.166Z,14.82
2023-05-22T04:25:51.545Z,13.98
2023-05-22T04:28:22.280Z,10.80
2023-05-22T04:30:49.287Z,11.77
2023-05-22T04:33:18.193Z,11.23
2023-05-22T04:35:44.910Z,11.77
2023-05-22T04:38:11.574Z,10.85
2023-05-22T04:40:38.524Z,9.90
2023-05-22T04:43:05.495Z,11.00
2023-05-22T04:45:33.045Z,11.52
2023-05-22T04:48:02.777Z,10.15
2023-05-22T04:50:34.308Z,10.57
2023-05-22T04:53:04.485Z,12.60
2023-05-22T04:55:34.079Z,10.00
2023-05-22T04:58:00.933Z,11.85
2023-05-22T05:00:28.826Z,12.98
2023-05-22T05:02:57.584Z,10.75
2023-05-22T05:05:24.869Z,12.32
2023-05-22T05:07:53.185Z,12.07
2023-05-22T05:10:19.830Z,12.45
2023-05-22T05:12:46.632Z,12.48
2023-05-22T05:15:13.613Z,13.20
2023-05-22T05:17:41.153Z,12.80
2023-05-22T05:20:08.673Z,13.05
2023-05-22T05:22:35.880Z,11.50
2023-05-22T05:25:05.463Z,13.20
2023-05-22T05:27:32.742Z,13.98
2023-05-22T05:29:59.518Z,14.60
2023-05-22T05:32:34.514Z,14.98
2023-05-22T05:35:18.253Z,13.30
2023-05-22T05:37:48.842Z,15.05
2023-05-22T05:40:16.222Z,14.10
2023-05-22T05:42:47.738Z,14.30
2023-05-22T05:45:16.478Z,15.40
2023-05-22T05:47:46.371Z,15.30
2023-05-22T05:50:15.633Z,12.45
2023-05-22T05:52:43.141Z,13.00
2023-05-22T05:55:14.386Z,13.95
2023-05-22T05:57:41.598Z,11.93
2023-05-22T06:00:13.488Z,12.07
2023-05-22T06:02:43.737Z,13.73
2023-05-22T06:05:27.018Z,13.52
2023-05-22T06:08:01.008Z,12.55
2023-05-22T06:10:27.741Z,14.05
2023-05-22T06:13:02.056Z,12.40
2023-05-22T06:15:29.005Z,12.65
2023-05-22T06:17:55.788Z,12.32
2023-05-22T06:20:25.135Z,12.82
2023-05-22T06:22:51.849Z,12.88
2023-05-22T06:25:19.015Z,12.15
2023-05-22T06:27:46.535Z,12.70
2023-05-22T06:30:14.838Z,12.63
2023-05-22T06:32:42.609Z,13.10
2023-05-22T06:35:10.606Z,12.88
2023-05-22T06:37:38.977Z,12.57
2023-05-22T06:40:07.651Z,12.70
2023-05-22T06:42:45.930Z,13.32
2023-05-22T06:45:24.620Z,13.85
2023-05-22T06:48:11.893Z,13.10
2023-05-22T06:50:49.565Z,13.13
2023-05-22T06:53:16.268Z,11.77
2023-05-22T06:55:43.024Z,12.63
2023-05-22T06:58:15.472Z,12.38
2023-05-22T07:00:42.360Z,13.52
2023-05-22T07:03:16.221Z,12.40
2023-05-22T07:06:06.205Z,13.23
2023-05-22T07:08:33.076Z,13.07
2023-05-22T07:11:01.935Z,13.07
2023-05-22T07:13:32.108Z,12.70
2023-05-22T07:15:58.929Z,13.10
2023-05-22T07:18:25.882Z,12.88
2023-05-22T07:20:52.570Z,13.85
2023-05-22T07:23:24.306Z,14.48
2023-05-22T07:25:51.719Z,13.63
2023-05-22T07:28:21.271Z,13.32
2023-05-22T07:30:53.856Z,13.23
2023-05-22T07:33:20.731Z,12.98
2023-05-22T07:35:47.529Z,13.00
2023-05-22T07:38:14.672Z,13.90
2023-05-22T07:40:51.510Z,13.27
2023-05-22T07:43:18.219Z,13.65
2023-05-22T07:45:45.026Z,13.95
2023-05-22T07:48:17.025Z,14.27
2023-05-22T07:50:45.561Z,13.43
2023-05-22T07:53:12.395Z,14.85
2023-05-22T07:55:42.333Z,13.77
2023-05-22T07:58:10.832Z,14.15
2023-05-22T08:00:41.650Z,13.73
2023-05-22T08:03:08.589Z,13.50
2023-05-22T08:05:35.527Z,14.95
2023-05-22T08:08:02.995Z,13.32
2023-05-22T08:10:37.288Z,14.20
2023-05-22T08:13:13.607Z,14.52
2023-05-22T08:15:40.801Z,14.45
2023-05-22T08:18:07.514Z,14.45
2023-05-22T08:20:34.372Z,13.07
2023-05-22T08:23:01.021Z,15.70
2023-05-22T08:25:27.763Z,14.25
2023-05-22T08:27:54.402Z,15.40
2023-05-22T08:30:21.074Z,14.70
2023-05-22T08:32:47.733Z,14.52
2023-05-22T08:35:14.493Z,13.98
2023-05-22T08:37:41.346Z,13.90
2023-05-22T08:40:11.448Z,14.32
2023-05-22T08:42:38.467Z,16.42
2023-05-22T08:45:07.026Z,17.00
2023-05-22T08:47:37.412Z,14.15
2023-05-22T08:50:04.504Z,14.55
2023-05-22T08:52:48.293Z,13.75
2023-05-22T08:55:15.014Z,14.15
2023-05-22T08:57:42.848Z,14.60
2023-05-22T09:00:09.877Z,16.73
2023-05-22T09:02:38.102Z,16.42
2023-05-22T09:05:09.175Z,15.93
2023-05-22T09:07:40.807Z,15.02
2023-05-22T09:10:08.139Z,14.15
2023-05-22T09:12:34.817Z,14.35
2023-05-22T09:15:11.111Z,15.20
2023-05-22T09:17:45.938Z,14.60
2023-05-22T09:20:15.689Z,12.95
2023-05-22T09:22:42.345Z,13.32
2023-05-22T09:25:09.177Z,14.68
2023-05-22T09:27:36.350Z,14.70
2023-05-22T09:30:02.994Z,13.00
2023-05-22T09:32:30.775Z,14.00
2023-05-22T09:35:04.869Z,13.20
2023-05-22T09:37:35.792Z,14.90
2023-05-22T09:40:11.047Z,13.02
2023-05-22T09:42:37.874Z,14.48
2023-05-22T09:45:11.286Z,11.52
2023-05-22T09:47:38.864Z,14.18
2023-05-22T09:50:07.290Z,13.93
2023-05-22T09:52:35.039Z,12.10
2023-05-22T09:55:07.102Z,12.95
2023-05-22T09:57:41.896Z,11.93
2023-05-22T10:00:12.427Z,12.52
2023-05-22T10:02:42.430Z,13.07
2023-05-22T10:05:09.634Z,12.88
2023-05-22T10:07:37.770Z,13.38
2023-05-22T10:10:10.745Z,11.60
2023-05-22T10:12:43.317Z,13.10
2023-05-22T10:15:13.088Z,11.27
2023-05-22T10:17:40.164Z,11.15
2023-05-22T10:20:08.054Z,12.63
2023-05-22T10:22:36.802Z,12.95
2023-05-22T10:25:04.195Z,12.43
2023-05-22T10:27:33.800Z,14.05
2023-05-22T10:30:22.008Z,12.88
2023-05-22T10:33:18.610Z,13.15
2023-05-22T10:35:59.390Z,15.10
2023-05-22T10:38:52.857Z,13.75
2023-05-22T10:41:19.560Z,11.73
2023-05-22T10:43:49.354Z,12.32
2023-05-22T10:46:16.131Z,13.60
2023-05-22T10:48:47.359Z,12.23
2023-05-22T10:51:23.432Z,12.93
2023-05-22T10:54:08.259Z,13.10
2023-05-22T10:56:35.958Z,12.40
2023-05-22T10:59:13.552Z,12.40
2023-05-22T11:01:40.452Z,13.00
2023-05-22T11:04:18.799Z,13.05
2023-05-22T11:07:04.133Z,10.93
2023-05-22T11:09:32.492Z,12.52
2023-05-22T11:12:18.108Z,10.75
2023-05-22T11:14:49.041Z,11.38
2023-05-22T11:20:18.678Z,11.82
2023-05-22T11:22:57.087Z,11.43
2023-05-22T11:25:24.442Z,12.05
2023-05-22T11:27:51.162Z,10.95
2023-05-22T11:30:17.828Z,11.23
2023-05-22T11:32:45.344Z,10.30
2023-05-22T11:35:19.216Z,11.48
2023-05-22T11:37:46.721Z,10.95
2023-05-22T11:40:18.920Z,11.48
2023-05-22T11:42:45.616Z,12.45
2023-05-22T11:45:12.403Z,11.98
2023-05-22T11:47:39.363Z,13.00
2023-05-22T11:50:09.160Z,12.55
2023-05-22T11:52:37.590Z,12.43
2023-05-22T11:55:05.527Z,12.77
2023-05-22T11:57:32.286Z,12.48
2023-05-22T11:59:59.297Z,11.75
2023-05-22T12:02:26.483Z,10.52
2023-05-22T12:04:57.197Z,13.77
2023-05-22T12:07:24.957Z,11.63
2023-05-22T12:09:51.622Z,12.05
2023-05-22T12:12:19.916Z,12.65
2023-05-22T12:14:48.685Z,12.57
2023-05-22T12:17:17.085Z,11.90
2023-05-22T12:19:44.529Z,12.02
2023-05-22T12:22:11.860Z,11.40
2023-05-22T12:24:52.147Z,12.55
2023-05-22T12:27:19.482Z,11.63
2023-05-22T12:29:46.122Z,13.88
2023-05-22T12:32:13.039Z,12.68
2023-05-22T12:34:46.748Z,12.45
2023-05-22T12:37:25.955Z,12.30
2023-05-22T12:39:57.614Z,12.05
2023-05-22T12:42:28.852Z,11.40
2023-05-22T12:44:58.210Z,11.93
2023-05-22T12:47:25.315Z,12.70
2023-05-22T12:49:52.327Z,12.88
2023-05-22T12:52:19.004Z,11.00
2023-05-22T12:54:46.151Z,11.00
2023-05-22T12:57:12.856Z,10.63
2023-05-22T12:59:39.505Z,10.70
2023-05-22T13:02:06.510Z,10.48
2023-05-22T13:04:33.337Z,10.25
2023-05-22T13:07:00.057Z,11.05
2023-05-22T13:09:27.003Z,10.68
2023-05-22T13:11:53.717Z,11.85
2023-05-22T13:14:20.388Z,11.48
2023-05-22T13:16:50.099Z,10.25
2023-05-22T13:19:17.031Z,11.93
2023-05-22T13:21:44.149Z,10.20
2023-05-22T13:24:10.999Z,10.50
2023-05-22T13:26:37.912Z,10.15
2023-05-22T13:29:04.933Z,9.85
2023-05-22T13:31:37.141Z,10.27
2023-05-22T13:34:04.635Z,10.65
2023-05-22T13:36:31.676Z,10.45
2023-05-22T13:38:58.560Z,11.45
2023-05-22T13:41:25.312Z,12.70
2023-05-22T13:43:51.927Z,11.90
2023-05-22T13:46:20.915Z,10.35
2023-05-22T13:48:47.801Z,10.77
2023-05-22T13:51:14.448Z,11.05
2023-05-22T13:53:41.159Z,9.38
2023-05-22T13:56:07.781Z,11.18
2023-05-22T13:58:34.549Z,10.50
2023-05-22T14:01:01.420Z,10.40
2023-05-22T14:03:28.500Z,10.98
2023-05-22T14:05:55.144Z,10.23
2023-05-22T14:08:21.825Z,11.05
2023-05-22T14:10:48.478Z,10.82
2023-05-22T14:13:15.276Z,10.70
2023-05-22T14:15:43.175Z,10.23
2023-05-22T14:18:09.867Z,8.27
2023-05-22T14:20:36.694Z,8.88
2023-05-22T14:23:03.325Z,10.32
2023-05-22T14:25:29.962Z,8.80
2023-05-22T14:27:56.606Z,11.23
2023-05-22T14:30:23.270Z,11.70
2023-05-22T14:32:50.063Z,12.48
2023-05-22T14:35:16.825Z,9.27
2023-05-22T14:37:43.931Z,10.07
2023-05-22T14:40:10.983Z,8.65
2023-05-22T14:42:37.938Z,10.40
2023-05-22T14:45:05.273Z,10.73
2023-05-22T14:47:31.935Z,8.98
2023-05-22T14:50:10.257Z,8.65
2023-05-22T14:52:44.675Z,9.20
2023-05-22T14:55:11.383Z,10.15
2023-05-22T14:57:38.140Z,8.77
2023-05-22T15:00:09.648Z,8.68
2023-05-22T15:02:37.073Z,8.48
2023-05-22T15:05:04.515Z,8.40
2023-05-22T15:07:42.907Z,9.02
2023-05-22T15:10:12.867Z,9.40
2023-05-22T15:12:39.568Z,9.95
2023-05-22T15:15:07.120Z,11.32
2023-05-22T15:17:33.858Z,10.57
2023-05-22T15:20:00.593Z,11.45
2023-05-22T15:22:27.287Z,10.50
2023-05-22T15:25:14.914Z,10.15
2023-05-22T15:27:42.205Z,10.15
2023-05-22T15:30:09.826Z,11.27
2023-05-22T15:32:37.295Z,12.05
2023-05-22T15:35:05.599Z,11.02
2023-05-22T15:37:33.754Z,11.02
2023-05-22T15:40:01.961Z,11.32
2023-05-22T15:42:29.001Z,10.43
2023-05-22T15:44:55.757Z,9.90
2023-05-22T15:47:22.417Z,10.25
2023-05-22T15:49:49.141Z,9.70
2023-05-22T15:52:19.356Z,9.15
2023-05-22T15:54:46.157Z,10.70
2023-05-22T15:57:12.831Z,9.25
2023-05-22T15:59:39.484Z,9.15
2023-05-22T16:02:08.489Z,10.88
2023-05-22T16:04:35.557Z,10.82
2023-05-22T16:07:02.186Z,12.30
2023-05-22T16:09:31.421Z,11.60
2023-05-22T16:11:59.259Z,10.93
2023-05-22T16:14:25.947Z,11.80
2023-05-22T16:16:52.630Z,12.80
2023-05-22T16:19:19.324Z,11.13
2023-05-22T16:21:46.037Z,9.95
2023-05-22T16:24:12.654Z,9.98
2023-05-22T16:26:39.306Z,9.18
2023-05-22T16:29:07.555Z,8.30
2023-05-22T16:31:35.559Z,9.48
2023-05-22T16:34:03.151Z,9.02
2023-05-22T16:36:29.789Z,8.20
2023-05-22T16:38:56.511Z,9.32
2023-05-22T16:41:23.231Z,11.43
2023-05-22T16:43:50.441Z,9.95
2023-05-22T16:46:17.139Z,10.00
2023-05-22T16:48:43.843Z,10.30
2023-05-22T16:51:11.455Z,10.57
2023-05-22T16:53:40.676Z,10.45
2023-05-22T16:56:07.525Z,10.65
2023-05-22T16:58:34.494Z,8.63
2023-05-22T17:01:01.393Z,11.57
2023-05-22T17:03:28.252Z,10.10
2023-05-22T17:05:55.152Z,10.73
2023-05-22T17:08:21.936Z,10.38
2023-05-22T17:10:48.802Z,9.82
2023-05-22T17:13:21.120Z,10.95
2023-05-22T17:15:51.365Z,10.82
2023-05-22T17:18:19.789Z,10.27
2023-05-22T17:20:50.925Z,10.15
2023-05-22T17:25:46.595Z,10.30
2023-05-22T17:28:14.478Z,11.25
2023-05-22T17:30:45.137Z,13.05
2023-05-22T17:33:12.255Z,15.60
2023-05-22T17:35:39.064Z,11.48
2023-05-22T17:38:07.793Z,10.63
2023-05-22T17:40:44.104Z,10.15
2023-05-22T17:43:12.847Z,10.35
2023-05-22T17:45:39.654Z,11.30
2023-05-22T17:48:07.561Z,10.75
2023-05-22T17:50:34.369Z,10.27
2023-05-22T17:53:01.235Z,10.50
2023-05-22T17:55:27.860Z,9.60
2023-05-22T17:57:54.735Z,11.18
2023-05-22T18:00:21.389Z,10.38
2023-05-22T18:02:48.116Z,12.05
2023-05-22T18:05:14.853Z,12.02
2023-05-22T18:07:41.846Z,13.75
2023-05-22T18:10:08.956Z,11.88
2023-05-22T18:12:38.035Z,11.32
2023-05-22T18:15:05.296Z,12.15
2023-05-22T18:17:32.566Z,10.45
2023-05-22T18:19:59.347Z,10.63
2023-05-22T18:22:26.101Z,10.88
2023-05-22T18:24:52.749Z,11.18
2023-05-22T18:27:19.387Z,11.10
2023-05-22T18:29:46.012Z,10.00
2023-05-22T18:32:13.815Z,9.85
2023-05-22T18:34:40.704Z,8.55
2023-05-22T18:37:07.360Z,11.80
2023-05-22T18:39:34.003Z,11.55
2023-05-22T18:42:00.642Z,12.10
2023-05-22T18:44:27.321Z,11.48
2023-05-22T18:46:53.932Z,9.60
2023-05-22T18:49:20.608Z,10.55
2023-05-22T18:51:47.483Z,10.27
2023-05-22T18:54:14.151Z,11.18
2023-05-22T18:56:41.046Z,11.88
2023-05-22T18:59:07.724Z,12.05
2023-05-22T19:01:34.432Z,11.88
2023-05-22T19:04:01.140Z,12.05
2023-05-22T19:06:28.970Z,14.57
2023-05-22T19:08:56.289Z,11.90
2023-05-22T19:11:22.931Z,13.07
2023-05-22T19:13:49.635Z,11.70
2023-05-22T19:16:16.279Z,11.93
2023-05-22T19:18:42.978Z,11.35
2023-05-22T19:21:10.924Z,11.05
2023-05-22T19:23:38.663Z,10.63
2023-05-22T19:26:05.462Z,12.40
2023-05-22T19:28:32.544Z,12.57
2023-05-22T19:31:01.128Z,11.65
2023-05-22T19:33:27.816Z,11.23
2023-05-22T19:35:54.549Z,12.02
2023-05-22T19:38:21.701Z,13.50
2023-05-22T19:40:48.547Z,12.80
2023-05-22T19:43:15.494Z,12.65
2023-05-22T19:45:42.348Z,12.07
2023-05-22T19:48:09.003Z,12.20
2023-05-22T19:50:35.672Z,11.77
2023-05-22T19:53:02.464Z,10.73
2023-05-22T19:55:29.254Z,11.32
2023-05-22T19:57:56.246Z,12.20
2023-05-22T20:00:23.339Z,10.93
2023-05-22T20:02:50.123Z,10.88
2023-05-22T20:05:17.002Z,10.00
2023-05-22T20:07:43.709Z,10.52
2023-05-22T20:10:11.194Z,10.18
2023-05-22T20:12:38.069Z,10.82
2023-05-22T20:15:06.888Z,11.48
2023-05-22T20:17:34.204Z,11.65
2023-05-22T20:20:01.044Z,10.43
2023-05-22T20:22:27.889Z,11.43
2023-05-22T20:24:54.526Z,10.32
2023-05-22T20:27:21.289Z,12.18
2023-05-22T20:29:50.181Z,11.73
2023-05-22T20:32:17.158Z,10.93
2023-05-22T20:34:45.417Z,12.32
2023-05-22T20:37:13.650Z,12.25
2023-05-22T20:39:43.105Z,11.57
2023-05-22T20:42:11.575Z,11.25
2023-05-22T20:44:38.390Z,10.57
2023-05-22T20:47:05.804Z,10.32
2023-05-22T20:49:34.687Z,11.13
2023-05-22T20:52:01.890Z,10.77
2023-05-22T20:54:33.961Z,10.95
2023-05-22T20:57:01.248Z,10.77
2023-05-22T20:59:30.986Z,11.57
2023-05-22T21:01:57.877Z,10.55
2023-05-22T21:04:26.057Z,11.07
2023-05-22T21:06:52.832Z,11.13
2023-05-22T21:09:19.578Z,11.25
2023-05-22T21:11:46.311Z,11.80
2023-05-22T21:14:13.020Z,10.50
2023-05-22T21:16:40.296Z,10.43
2023-05-22T21:19:07.348Z,10.75
2023-05-22T21:21:35.754Z,11.05
2023-05-22T21:24:02.456Z,12.68
2023-05-22T21:26:31.853Z,11.38
2023-05-22T21:28:58.730Z,11.70
2023-05-22T21:31:27.511Z,11.52
2023-05-22T21:33:54.390Z,11.35
2023-05-22T21:36:21.087Z,10.68
2023-05-22T21:38:47.748Z,10.05
2023-05-22T21:41:15.946Z,9.50
2023-05-22T21:43:42.598Z,11.00
2023-05-22T21:46:10.151Z,9.93
2023-05-22T21:48:36.771Z,10.52
2023-05-22T21:51:03.669Z,11.45
2023-05-22T21:53:30.385Z,11.02
2023-05-22T21:55:57.038Z,13.27
2023-05-22T21:58:23.699Z,10.75
2023-05-22T22:00:51.018Z,10.82
2023-05-22T22:03:17.930Z,10.63
2023-05-22T22:05:44.656Z,10.23
2023-05-22T22:08:11.280Z,11.18
2023-05-22T22:10:38.157Z,12.07
2023-05-22T22:13:04.977Z,12.40
2023-05-22T22:15:32.172Z,12.70
2023-05-22T22:18:02.328Z,12.30
2023-05-22T22:20:43.691Z,11.38
2023-05-22T22:23:11.894Z,11.52
2023-05-22T22:25:39.290Z,12.80
2023-05-22T22:28:07.338Z,10.43
2023-05-22T22:30:35.139Z,13.02
2023-05-22T22:33:02.102Z,11.32
2023-05-22T22:35:28.886Z,12.45
2023-05-22T22:37:55.664Z,11.77
2023-05-22T22:40:23.348Z,12.25
2023-05-22T22:42:51.030Z,11.60
2023-05-22T22:45:17.910Z,11.45
2023-05-22T22:47:45.865Z,11.32
2023-05-22T22:50:12.671Z,10.85
2023-05-22T22:52:41.598Z,11.07
2023-05-22T22:55:09.061Z,11.10
2023-05-22T22:57:36.035Z,9.95
2023-05-22T23:00:02.746Z,10.77
2023-05-22T23:02:29.504Z,9.98
2023-05-22T23:04:56.497Z,10.88
2023-05-22T23:07:24.086Z,10.98
2023-05-22T23:09:50.856Z,11.70
2023-05-22T23:12:17.494Z,10.48
2023-05-22T23:14:44.890Z,10.73
2023-05-22T23:17:11.826Z,12.05
2023-05-22T23:19:38.489Z,10.82
2023-05-22T23:22:11.407Z,10.48
2023-05-22T23:24:38.051Z,10.63
2023-05-22T23:27:04.791Z,11.77
2023-05-22T23:29:31.528Z,10.93
2023-05-22T23:31:58.285Z,12.13
2023-05-22T23:34:25.006Z,11.65
2023-05-22T23:36:51.731Z,10.48
2023-05-22T23:39:18.382Z,12.60
2023-05-22T23:41:45.433Z,13.10
2023-05-22T23:44:12.221Z,11.85
2023-05-22T23:46:39.819Z,12.15
2023-05-22T23:49:07.354Z,11.70
2023-05-22T23:51:34.092Z,11.13
2023-05-22T23:54:01.116Z,12.50
2023-05-22T23:56:27.940Z,12.65
2023-05-22T23:58:54.569Z,11.52
